createdAt,value
2024-03-02T00:03:26.239Z,91.71
2024-03-02T00:08:28.785Z,91.46
2024-03-02T00:13:34.948Z,91.27
2024-03-02T00:18:38.020Z,90.94
2024-03-02T00:23:40.851Z,91.65
2024-03-02T00:28:47.475Z,91.25
2024-03-02T00:33:50.396Z,91.42
2024-03-02T00:38:55.267Z,91.80
2024-03-02T00:44:09.528Z,91.64
2024-03-02T00:49:27.101Z,91.67
2024-03-02T00:54:30.237Z,91.89
2024-03-02T00:59:33.145Z,91.99
2024-03-02T01:04:35.434Z,92.31
2024-03-02T01:09:37.370Z,91.91
2024-03-02T01:14:39.218Z,91.55
2024-03-02T01:19:43.208Z,91.65
2024-03-02T01:24:45.275Z,91.71
2024-03-02T01:29:47.351Z,91.89
2024-03-02T01:34:49.600Z,91.71
2024-03-02T01:39:51.817Z,92.05
2024-03-02T01:44:53.923Z,92.32
2024-03-02T01:49:55.909Z,92.22
2024-03-02T01:54:57.897Z,91.96
2024-03-02T02:00:00.021Z,92.31
2024-03-02T02:05:01.912Z,92.47
2024-03-02T02:10:04.113Z,92.27
2024-03-02T02:15:32.033Z,92.33
2024-03-02T02:20:34.385Z,92.55
2024-03-02T02:25:36.479Z,92.21
2024-03-02T02:30:38.786Z,92.46
2024-03-02T02:35:40.737Z,92.33
2024-03-02T02:40:42.647Z,92.43
2024-03-02T02:45:44.500Z,92.46
2024-03-02T02:50:46.564Z,92.56
2024-03-02T02:55:48.482Z,92.49
2024-03-02T03:00:50.777Z,92.32
2024-03-02T03:05:52.945Z,92.15
2024-03-02T03:10:54.827Z,91.80
2024-03-02T03:15:57.230Z,92.40
2024-03-02T03:20:59.263Z,91.94
2024-03-02T03:26:02.071Z,91.63
2024-03-02T03:31:04.718Z,91.83
2024-03-02T03:36:07.005Z,91.66
2024-03-02T03:41:09.049Z,91.72
2024-03-02T03:46:11.721Z,91.48
2024-03-02T03:51:13.686Z,91.71
2024-03-02T03:56:15.669Z,91.71
2024-03-02T04:01:17.789Z,91.76
2024-03-02T04:06:19.948Z,91.85
2024-03-02T04:11:22.029Z,92.08
2024-03-02T04:16:24.152Z,91.87
2024-03-02T04:21:26.009Z,91.56
2024-03-02T04:26:28.096Z,91.90
2024-03-02T04:31:30.261Z,91.69
2024-03-02T04:36:32.575Z,92.37
2024-03-02T04:41:34.525Z,91.84
2024-03-02T04:46:36.518Z,91.80
2024-03-02T04:51:38.691Z,91.80
2024-03-02T04:56:51.253Z,92.10
2024-03-02T05:01:53.477Z,91.80
2024-03-02T05:06:57.449Z,91.99
2024-03-02T05:12:18.481Z,91.89
2024-03-02T05:17:20.320Z,91.92
2024-03-02T05:22:22.147Z,91.80
2024-03-02T05:27:24.163Z,91.59
2024-03-02T05:32:26.752Z,91.86
2024-03-02T05:37:29.644Z,91.73
2024-03-02T05:42:31.680Z,91.81
2024-03-02T05:47:34.310Z,91.85
2024-03-02T05:52:36.344Z,91.43
2024-03-02T05:57:57.042Z,91.64
2024-03-02T06:02:59.294Z,91.09
2024-03-02T06:08:01.256Z,91.24
2024-03-02T06:13:03.251Z,91.33
2024-03-02T06:18:07.863Z,91.75
2024-03-02T06:23:10.544Z,91.37
2024-03-02T06:28:12.464Z,91.21
2024-03-02T06:33:14.489Z,91.57
2024-03-02T06:38:16.448Z,91.50
2024-03-02T06:43:18.429Z,91.02
2024-03-02T06:48:24.349Z,90.90
2024-03-02T06:53:26.807Z,91.07
2024-03-02T06:58:28.804Z,90.91
2024-03-02T07:03:30.965Z,90.87
2024-03-02T07:08:33.048Z,90.85
2024-03-02T07:13:35.974Z,90.71
2024-03-02T07:18:46.607Z,90.47
2024-03-02T07:23:48.583Z,90.60
2024-03-02T07:28:50.591Z,90.86
2024-03-02T07:33:52.820Z,90.71
2024-03-02T07:38:55.820Z,90.87
2024-03-02T07:43:58.092Z,90.63
2024-03-02T07:49:00.192Z,90.20
2024-03-02T07:54:02.196Z,90.43
2024-03-02T07:59:05.239Z,90.30
2024-03-02T08:04:07.921Z,90.26
2024-03-02T08:09:13.776Z,89.42
2024-03-02T08:14:15.757Z,89.31
2024-03-02T08:19:17.923Z,88.81
2024-03-02T08:24:20.306Z,88.09
2024-03-02T08:29:22.393Z,87.78
2024-03-02T08:34:27.921Z,87.73
2024-03-02T08:39:29.942Z,87.31
2024-03-02T08:44:32.444Z,87.72
2024-03-02T08:49:35.538Z,87.67
2024-03-02T08:54:37.603Z,87.28
2024-03-02T08:59:40.314Z,87.07
2024-03-02T09:04:42.380Z,86.78
2024-03-02T09:09:44.358Z,86.68
2024-03-02T09:14:48.592Z,86.73
2024-03-02T09:19:54.014Z,86.93
2024-03-02T09:24:56.036Z,86.68
2024-03-02T09:29:57.918Z,86.40
2024-03-02T09:35:00.139Z,85.78
2024-03-02T09:40:02.268Z,85.81
2024-03-02T09:45:04.786Z,85.73
2024-03-02T09:50:08.539Z,85.49
2024-03-02T09:55:10.978Z,85.12
2024-03-02T10:00:16.283Z,84.77
2024-03-02T10:05:27.063Z,85.00
2024-03-02T10:10:40.999Z,85.07
2024-03-02T10:15:43.681Z,84.56
2024-03-02T10:20:45.883Z,84.63
2024-03-02T10:25:54.934Z,84.40
2024-03-02T10:31:00.408Z,84.22
2024-03-02T10:36:03.513Z,83.69
2024-03-02T10:41:06.019Z,83.02
2024-03-02T10:46:07.926Z,82.81
2024-03-02T10:51:09.868Z,82.83
2024-03-02T10:56:17.538Z,82.47
2024-03-02T11:01:21.291Z,81.77
2024-03-02T11:06:24.877Z,81.57
2024-03-02T11:11:36.112Z,81.57
2024-03-02T11:16:40.936Z,81.57
2024-03-02T11:21:44.650Z,81.76
2024-03-02T11:26:46.896Z,81.63
2024-03-02T11:32:19.417Z,81.38
2024-03-02T11:37:22.016Z,81.30
2024-03-02T11:42:24.094Z,80.90
2024-03-02T11:47:34.683Z,80.40
2024-03-02T11:52:37.985Z,80.46
2024-03-02T11:57:39.966Z,80.30
2024-03-02T12:02:46.244Z,79.98
2024-03-02T12:07:48.779Z,79.53
2024-03-02T12:13:00.106Z,79.06
2024-03-02T12:18:03.729Z,78.81
2024-03-02T12:23:06.891Z,78.70
2024-03-02T12:28:09.949Z,77.85
2024-03-02T12:33:12.930Z,77.54
2024-03-02T12:38:16.163Z,77.26
2024-03-02T12:43:18.128Z,76.62
2024-03-02T12:48:20.329Z,76.34
2024-03-02T12:53:23.041Z,76.41
2024-03-02T12:58:25.210Z,76.39
2024-03-02T13:03:27.368Z,76.45
2024-03-02T13:08:29.380Z,76.39
2024-03-02T13:13:35.653Z,76.36
2024-03-02T13:18:39.601Z,75.85
2024-03-02T13:23:41.528Z,76.16
2024-03-02T13:28:43.461Z,76.67
2024-03-02T13:33:45.632Z,76.84
2024-03-02T13:38:47.504Z,77.21
2024-03-02T13:43:51.211Z,77.59
2024-03-02T13:48:55.429Z,77.76
2024-03-02T13:54:00.361Z,77.93
2024-03-02T13:59:02.388Z,78.46
2024-03-02T14:04:04.594Z,78.50
2024-03-02T14:09:06.500Z,79.00
2024-03-02T14:14:08.506Z,78.90
2024-03-02T14:19:10.948Z,79.40
2024-03-02T14:24:13.112Z,79.95
2024-03-02T14:29:15.381Z,80.26
2024-03-02T14:34:17.502Z,80.52
2024-03-02T14:39:20.961Z,81.21
2024-03-02T14:44:23.326Z,81.73
2024-03-02T14:49:26.325Z,82.04
2024-03-02T14:54:28.324Z,82.50
2024-03-02T14:59:31.043Z,82.93
2024-03-02T15:04:33.022Z,83.26
2024-03-02T15:09:36.860Z,83.58
2024-03-02T15:14:39.843Z,83.89
2024-03-02T15:19:42.362Z,83.83
2024-03-02T15:24:45.142Z,83.84
2024-03-02T15:29:49.411Z,83.80
2024-03-02T15:34:51.452Z,83.99
2024-03-02T15:39:53.594Z,83.90
2024-03-02T15:44:56.232Z,84.00
2024-03-02T15:49:58.112Z,84.51
2024-03-02T15:55:00.244Z,85.04
2024-03-02T16:00:02.208Z,85.08
2024-03-02T16:05:14.427Z,85.19
2024-03-02T16:10:17.527Z,85.17
2024-03-02T16:15:19.765Z,85.33
2024-03-02T16:20:21.672Z,85.49
2024-03-02T16:25:26.294Z,85.53
2024-03-02T16:30:28.413Z,85.58
2024-03-02T16:35:30.431Z,85.86
2024-03-02T16:40:33.061Z,85.85
2024-03-02T16:45:35.564Z,86.35
2024-03-02T16:50:37.590Z,86.47
2024-03-02T16:55:39.526Z,86.55
2024-03-02T17:00:42.297Z,86.72
2024-03-02T17:05:44.332Z,86.93
2024-03-02T17:10:47.448Z,87.02
2024-03-02T17:15:49.411Z,87.20
2024-03-02T17:20:51.777Z,87.38
2024-03-02T17:25:53.800Z,87.57
2024-03-02T17:30:56.723Z,87.80
2024-03-02T17:35:59.145Z,87.84
2024-03-02T17:41:02.044Z,87.82
2024-03-02T17:46:04.321Z,88.01
2024-03-02T17:51:09.413Z,88.09
2024-03-02T17:56:12.497Z,88.20
2024-03-02T18:01:16.594Z,88.17
2024-03-02T18:06:18.864Z,88.28
2024-03-02T18:11:24.855Z,88.67
2024-03-02T18:16:27.463Z,88.67
2024-03-02T18:21:30.212Z,88.59
2024-03-02T18:26:34.460Z,88.89
2024-03-02T18:31:36.553Z,88.88
2024-03-02T18:36:38.432Z,89.07
2024-03-02T18:41:40.344Z,88.86
2024-03-02T18:46:42.574Z,89.12
2024-03-02T18:51:44.488Z,89.35
2024-03-02T18:56:46.618Z,89.37
2024-03-02T19:01:50.580Z,89.27
2024-03-02T19:06:52.904Z,89.47
2024-03-02T19:11:56.504Z,89.25
2024-03-02T19:16:58.525Z,89.45
2024-03-02T19:22:05.451Z,89.64
2024-03-02T19:27:12.528Z,89.40
2024-03-02T19:32:18.412Z,89.58
2024-03-02T19:37:22.904Z,89.48
2024-03-02T19:42:24.770Z,89.57
2024-03-02T19:47:27.681Z,89.47
2024-03-02T19:52:29.873Z,89.88
2024-03-02T19:57:32.075Z,89.92
2024-03-02T20:02:34.130Z,90.14
2024-03-02T20:07:37.162Z,90.31
2024-03-02T20:12:39.583Z,90.55
2024-03-02T20:17:41.624Z,90.49
2024-03-02T20:22:44.292Z,90.80
2024-03-02T20:27:46.562Z,90.35
2024-03-02T20:32:48.550Z,90.72
2024-03-02T20:37:51.388Z,90.78
2024-03-02T20:42:53.257Z,90.81
2024-03-02T20:47:55.245Z,90.44
2024-03-02T20:53:01.705Z,90.50
2024-03-02T20:58:03.726Z,90.88
2024-03-02T21:03:06.154Z,90.55
2024-03-02T21:08:10.095Z,90.70
2024-03-02T21:13:12.154Z,90.82
2024-03-02T21:18:14.169Z,90.68
2024-03-02T21:23:17.484Z,90.69
2024-03-02T21:28:19.602Z,90.60
2024-03-02T21:33:21.497Z,90.50
2024-03-02T21:38:25.015Z,90.78
2024-03-02T21:43:32.386Z,90.87
2024-03-02T21:48:35.650Z,90.58
2024-03-02T21:53:37.553Z,90.69
2024-03-02T21:58:40.477Z,90.37
2024-03-02T22:03:46.882Z,90.51
2024-03-02T22:08:53.005Z,90.51
2024-03-02T22:13:55.010Z,90.28
2024-03-02T22:18:56.981Z,90.66
2024-03-02T22:23:58.944Z,90.60
2024-03-02T22:29:00.855Z,90.64
2024-03-02T22:34:02.743Z,90.42
2024-03-02T22:39:05.073Z,90.69
2024-03-02T22:44:07.181Z,90.85
2024-03-02T22:49:09.255Z,90.87
2024-03-02T22:54:12.796Z,90.99
2024-03-02T22:59:15.526Z,91.03
2024-03-02T23:04:17.406Z,90.92
2024-03-02T23:09:19.362Z,90.89
2024-03-02T23:14:21.549Z,90.61
2024-03-02T23:19:24.283Z,90.78
2024-03-02T23:24:26.353Z,90.75
2024-03-02T23:29:28.250Z,90.50
2024-03-02T23:34:30.287Z,90.36
2024-03-02T23:39:51.386Z,90.17
2024-03-02T23:44:53.261Z,89.96
2024-03-02T23:49:55.324Z,90.04
2024-03-02T23:54:57.366Z,90.26
2024-03-02T23:59:59.604Z,90.11
